sensor_id;sensor_type;location;lat;lon;timestamp;P1;durP1;ratioP1;P2;durP2;ratioP2
41139;SDS011;26881;48.784;9.192;2023-02-08T00:02:38;16.80;;;10.80;;
41139;SDS011;26881;48.784;9.192;2023-02-08T00:08:00;17.23;;;11.17;;
41139;SDS011;26881;48.784;9.192;2023-02-08T00:13:21;16.13;;;10.77;;
41139;SDS011;26881;48.784;9.192;2023-02-08T00:18:43;15.60;;;10.73;;
41139;SDS011;26881;48.784;9.192;2023-02-08T00:24:05;17.27;;;10.77;;
41139;SDS011;26881;48.784;9.192;2023-02-08T00:29:27;15.03;;;10.13;;
41139;SDS011;26881;48.784;9.192;2023-02-08T00:34:49;15.10;;;9.67;;
41139;SDS011;26881;48.784;9.192;2023-02-08T00:40:11;14.37;;;10.07;;
41139;SDS011;26881;48.784;9.192;2023-02-08T00:45:33;15.77;;;10.47;;
41139;SDS011;26881;48.784;9.192;2023-02-08T00:56:19;16.67;;;10.13;;
41139;SDS011;26881;48.784;9.192;2023-02-08T01:01:41;15.37;;;10.70;;
41139;SDS011;26881;48.784;9.192;2023-02-08T01:07:03;15.10;;;10.47;;
41139;SDS011;26881;48.784;9.192;2023-02-08T01:12:25;14.57;;;10.43;;
41139;SDS011;26881;48.784;9.192;2023-02-08T01:17:48;18.07;;;10.07;;
41139;SDS011;26881;48.784;9.192;2023-02-08T01:23:14;14.70;;;10.00;;
41139;SDS011;26881;48.784;9.192;2023-02-08T01:28:36;17.37;;;10.77;;
41139;SDS011;26881;48.784;9.192;2023-02-08T01:33:58;14.27;;;10.23;;
41139;SDS011;26881;48.784;9.192;2023-02-08T01:39:20;12.67;;;9.50;;
41139;SDS011;26881;48.784;9.192;2023-02-08T01:50:33;16.00;;;10.37;;
41139;SDS011;26881;48.784;9.192;2023-02-08T01:56:04;15.07;;;10.37;;
41139;SDS011;26881;48.784;9.192;2023-02-08T02:01:29;15.90;;;10.13;;
41139;SDS011;26881;48.784;9.192;2023-02-08T02:06:53;15.27;;;10.33;;
41139;SDS011;26881;48.784;9.192;2023-02-08T02:12:18;18.37;;;10.27;;
41139;SDS011;26881;48.784;9.192;2023-02-08T02:17:41;17.03;;;10.53;;
41139;SDS011;26881;48.784;9.192;2023-02-08T02:23:12;16.23;;;10.27;;
41139;SDS011;26881;48.784;9.192;2023-02-08T02:34:25;14.07;;;9.90;;
41139;SDS011;26881;48.784;9.192;2023-02-08T02:39:59;17.77;;;10.77;;
41139;SDS011;26881;48.784;9.192;2023-02-08T02:45:26;16.83;;;10.47;;
41139;SDS011;26881;48.784;9.192;2023-02-08T02:50:54;14.90;;;9.73;;
41139;SDS011;26881;48.784;9.192;2023-02-08T02:56:38;12.17;;;9.47;;
41139;SDS011;26881;48.784;9.192;2023-02-08T03:02:06;16.33;;;9.60;;
41139;SDS011;26881;48.784;9.192;2023-02-08T03:07:45;17.50;;;9.73;;
41139;SDS011;26881;48.784;9.192;2023-02-08T03:19:19;14.93;;;10.23;;
41139;SDS011;26881;48.784;9.192;2023-02-08T03:24:50;18.10;;;10.50;;
41139;SDS011;26881;48.784;9.192;2023-02-08T03:30:27;15.80;;;10.30;;
41139;SDS011;26881;48.784;9.192;2023-02-08T03:35:59;16.73;;;9.87;;
41139;SDS011;26881;48.784;9.192;2023-02-08T03:41:33;17.43;;;10.10;;
41139;SDS011;26881;48.784;9.192;2023-02-08T03:47:12;16.87;;;9.70;;
41139;SDS011;26881;48.784;9.192;2023-02-08T03:52:35;15.30;;;9.83;;
41139;SDS011;26881;48.784;9.192;2023-02-08T03:58:00;15.17;;;9.73;;
41139;SDS011;26881;48.784;9.192;2023-02-08T04:03:27;18.07;;;10.63;;
41139;SDS011;26881;48.784;9.192;2023-02-08T04:08:51;14.00;;;10.33;;
41139;SDS011;26881;48.784;9.192;2023-02-08T04:14:13;14.37;;;9.77;;
41139;SDS011;26881;48.784;9.192;2023-02-08T04:19:35;17.00;;;10.67;;
41139;SDS011;26881;48.784;9.192;2023-02-08T04:24:56;17.47;;;10.73;;
41139;SDS011;26881;48.784;9.192;2023-02-08T04:30:18;15.00;;;10.23;;
41139;SDS011;26881;48.784;9.192;2023-02-08T04:35:40;14.43;;;9.90;;
41139;SDS011;26881;48.784;9.192;2023-02-08T04:41:02;19.90;;;10.73;;
41139;SDS011;26881;48.784;9.192;2023-02-08T04:46:24;15.97;;;11.30;;
41139;SDS011;26881;48.784;9.192;2023-02-08T04:51:46;17.60;;;10.90;;
41139;SDS011;26881;48.784;9.192;2023-02-08T04:57:12;16.10;;;10.43;;
41139;SDS011;26881;48.784;9.192;2023-02-08T05:02:34;18.30;;;10.27;;
41139;SDS011;26881;48.784;9.192;2023-02-08T05:07:56;17.33;;;11.00;;
41139;SDS011;26881;48.784;9.192;2023-02-08T05:13:17;15.83;;;10.83;;
41139;SDS011;26881;48.784;9.192;2023-02-08T05:18:40;17.53;;;11.23;;
41139;SDS011;26881;48.784;9.192;2023-02-08T05:24:02;18.67;;;11.43;;
41139;SDS011;26881;48.784;9.192;2023-02-08T05:29:24;18.80;;;12.10;;
41139;SDS011;26881;48.784;9.192;2023-02-08T05:34:46;17.33;;;11.07;;
41139;SDS011;26881;48.784;9.192;2023-02-08T05:40:08;16.00;;;10.70;;
41139;SDS011;26881;48.784;9.192;2023-02-08T05:45:30;16.80;;;10.80;;
41139;SDS011;26881;48.784;9.192;2023-02-08T05:56:14;20.33;;;12.33;;
41139;SDS011;26881;48.784;9.192;2023-02-08T06:01:36;21.10;;;11.50;;
41139;SDS011;26881;48.784;9.192;2023-02-08T06:06:58;16.07;;;10.50;;
41139;SDS011;26881;48.784;9.192;2023-02-08T06:12:19;15.30;;;10.77;;
41139;SDS011;26881;48.784;9.192;2023-02-08T06:17:41;18.07;;;10.80;;
41139;SDS011;26881;48.784;9.192;2023-02-08T06:23:03;20.00;;;11.30;;
41139;SDS011;26881;48.784;9.192;2023-02-08T06:28:25;16.40;;;11.33;;
41139;SDS011;26881;48.784;9.192;2023-02-08T06:33:47;16.13;;;11.00;;
41139;SDS011;26881;48.784;9.192;2023-02-08T06:39:08;17.93;;;11.23;;
41139;SDS011;26881;48.784;9.192;2023-02-08T06:44:30;17.20;;;11.50;;
41139;SDS011;26881;48.784;9.192;2023-02-08T06:49:52;20.83;;;11.80;;
41139;SDS011;26881;48.784;9.192;2023-02-08T06:55:14;17.57;;;11.33;;
41139;SDS011;26881;48.784;9.192;2023-02-08T07:00:36;19.43;;;12.27;;
41139;SDS011;26881;48.784;9.192;2023-02-08T07:05:59;18.83;;;11.53;;
41139;SDS011;26881;48.784;9.192;2023-02-08T07:11:26;19.77;;;12.90;;
41139;SDS011;26881;48.784;9.192;2023-02-08T07:16:48;25.90;;;15.03;;
41139;SDS011;26881;48.784;9.192;2023-02-08T07:22:09;19.83;;;12.73;;
41139;SDS011;26881;48.784;9.192;2023-02-08T07:27:31;19.70;;;11.60;;
41139;SDS011;26881;48.784;9.192;2023-02-08T07:32:53;18.17;;;11.30;;
41139;SDS011;26881;48.784;9.192;2023-02-08T07:38:15;18.43;;;11.60;;
41139;SDS011;26881;48.784;9.192;2023-02-08T07:43:41;24.97;;;12.20;;
41139;SDS011;26881;48.784;9.192;2023-02-08T07:49:03;19.50;;;11.63;;
41139;SDS011;26881;48.784;9.192;2023-02-08T07:54:25;21.23;;;11.90;;
41139;SDS011;26881;48.784;9.192;2023-02-08T07:59:47;19.70;;;12.17;;
41139;SDS011;26881;48.784;9.192;2023-02-08T08:05:09;20.03;;;12.23;;
41139;SDS011;26881;48.784;9.192;2023-02-08T08:10:31;26.23;;;12.23;;
41139;SDS011;26881;48.784;9.192;2023-02-08T08:15:53;19.37;;;12.70;;
41139;SDS011;26881;48.784;9.192;2023-02-08T08:21:15;24.30;;;12.53;;
41139;SDS011;26881;48.784;9.192;2023-02-08T08:26:37;24.70;;;13.77;;
41139;SDS011;26881;48.784;9.192;2023-02-08T08:31:59;19.43;;;12.53;;
41139;SDS011;26881;48.784;9.192;2023-02-08T08:37:20;21.43;;;14.17;;
41139;SDS011;26881;48.784;9.192;2023-02-08T08:42:42;22.70;;;12.23;;
41139;SDS011;26881;48.784;9.192;2023-02-08T08:48:04;20.67;;;12.40;;
41139;SDS011;26881;48.784;9.192;2023-02-08T08:53:26;22.80;;;12.70;;
41139;SDS011;26881;48.784;9.192;2023-02-08T08:58:48;21.10;;;13.00;;
41139;SDS011;26881;48.784;9.192;2023-02-08T09:04:10;22.63;;;13.50;;
41139;SDS011;26881;48.784;9.192;2023-02-08T09:09:32;19.57;;;12.53;;
41139;SDS011;26881;48.784;9.192;2023-02-08T09:14:54;22.03;;;13.57;;
41139;SDS011;26881;48.784;9.192;2023-02-08T09:20:16;21.63;;;13.80;;
41139;SDS011;26881;48.784;9.192;2023-02-08T09:25:38;21.90;;;14.17;;
41139;SDS011;26881;48.784;9.192;2023-02-08T09:36:58;22.43;;;13.37;;
41139;SDS011;26881;48.784;9.192;2023-02-08T09:42:25;23.27;;;12.93;;
41139;SDS011;26881;48.784;9.192;2023-02-08T09:53:35;22.80;;;13.40;;
41139;SDS011;26881;48.784;9.192;2023-02-08T09:59:04;20.70;;;13.87;;
41139;SDS011;26881;48.784;9.192;2023-02-08T10:04:36;21.87;;;13.10;;
41139;SDS011;26881;48.784;9.192;2023-02-08T10:10:10;22.27;;;13.47;;
41139;SDS011;26881;48.784;9.192;2023-02-08T10:16:10;22.93;;;13.73;;
41139;SDS011;26881;48.784;9.192;2023-02-08T10:21:38;21.17;;;13.57;;
41139;SDS011;26881;48.784;9.192;2023-02-08T10:27:16;19.13;;;12.57;;
41139;SDS011;26881;48.784;9.192;2023-02-08T10:32:53;20.83;;;13.30;;
41139;SDS011;26881;48.784;9.192;2023-02-08T10:43:43;23.73;;;12.30;;
41139;SDS011;26881;48.784;9.192;2023-02-08T10:49:16;19.03;;;11.93;;
41139;SDS011;26881;48.784;9.192;2023-02-08T10:54:56;20.73;;;13.20;;
41139;SDS011;26881;48.784;9.192;2023-02-08T11:00:20;22.60;;;12.87;;
41139;SDS011;26881;48.784;9.192;2023-02-08T11:05:47;22.87;;;12.57;;
41139;SDS011;26881;48.784;9.192;2023-02-08T11:11:10;22.13;;;11.47;;
41139;SDS011;26881;48.784;9.192;2023-02-08T11:16:32;17.80;;;11.87;;
41139;SDS011;26881;48.784;9.192;2023-02-08T11:21:54;18.20;;;11.17;;
41139;SDS011;26881;48.784;9.192;2023-02-08T11:27:28;19.20;;;10.47;;
41139;SDS011;26881;48.784;9.192;2023-02-08T11:33:11;17.23;;;10.33;;
41139;SDS011;26881;48.784;9.192;2023-02-08T11:38:40;15.77;;;9.60;;
41139;SDS011;26881;48.784;9.192;2023-02-08T11:44:03;18.73;;;10.63;;
41139;SDS011;26881;48.784;9.192;2023-02-08T11:49:37;17.17;;;10.13;;
41139;SDS011;26881;48.784;9.192;2023-02-08T12:00:59;19.77;;;9.47;;
41139;SDS011;26881;48.784;9.192;2023-02-08T12:12:34;12.77;;;8.23;;
41139;SDS011;26881;48.784;9.192;2023-02-08T12:57:58;11.97;;;7.57;;
41139;SDS011;26881;48.784;9.192;2023-02-08T13:15:31;11.70;;;6.80;;
41139;SDS011;26881;48.784;9.192;2023-02-08T13:20:59;12.80;;;6.50;;
41139;SDS011;26881;48.784;9.192;2023-02-08T13:26:27;8.03;;;6.00;;
41139;SDS011;26881;48.784;9.192;2023-02-08T13:31:55;11.03;;;5.97;;
41139;SDS011;26881;48.784;9.192;2023-02-08T13:37:52;9.13;;;5.80;;
41139;SDS011;26881;48.784;9.192;2023-02-08T13:43:23;10.57;;;6.50;;
41139;SDS011;26881;48.784;9.192;2023-02-08T13:48:57;11.47;;;6.87;;
41139;SDS011;26881;48.784;9.192;2023-02-08T13:54:20;12.83;;;7.33;;
41139;SDS011;26881;48.784;9.192;2023-02-08T13:59:44;10.27;;;6.10;;
41139;SDS011;26881;48.784;9.192;2023-02-08T14:05:49;11.70;;;6.90;;
41139;SDS011;26881;48.784;9.192;2023-02-08T14:22:26;11.33;;;6.93;;
41139;SDS011;26881;48.784;9.192;2023-02-08T14:28:00;11.83;;;6.73;;
41139;SDS011;26881;48.784;9.192;2023-02-08T14:33:27;8.17;;;6.50;;
41139;SDS011;26881;48.784;9.192;2023-02-08T14:39:04;11.60;;;6.87;;
41139;SDS011;26881;48.784;9.192;2023-02-08T14:44:44;9.80;;;7.03;;
41139;SDS011;26881;48.784;9.192;2023-02-08T14:50:16;11.37;;;6.40;;
41139;SDS011;26881;48.784;9.192;2023-02-08T14:55:48;12.17;;;7.80;;
41139;SDS011;26881;48.784;9.192;2023-02-08T15:01:13;15.23;;;8.87;;
41139;SDS011;26881;48.784;9.192;2023-02-08T15:12:28;14.30;;;8.00;;
41139;SDS011;26881;48.784;9.192;2023-02-08T15:17:53;11.63;;;8.33;;
41139;SDS011;26881;48.784;9.192;2023-02-08T15:23:20;11.43;;;8.40;;
41139;SDS011;26881;48.784;9.192;2023-02-08T15:28:44;16.93;;;8.03;;
41139;SDS011;26881;48.784;9.192;2023-02-08T15:34:08;12.60;;;8.23;;
41139;SDS011;26881;48.784;9.192;2023-02-08T15:39:35;11.43;;;8.47;;
41139;SDS011;26881;48.784;9.192;2023-02-08T15:45:01;13.47;;;7.83;;
41139;SDS011;26881;48.784;9.192;2023-02-08T15:50:25;13.10;;;8.57;;
41139;SDS011;26881;48.784;9.192;2023-02-08T15:55:49;17.67;;;8.57;;
41139;SDS011;26881;48.784;9.192;2023-02-08T16:01:18;10.87;;;8.60;;
41139;SDS011;26881;48.784;9.192;2023-02-08T16:06:48;12.40;;;9.13;;
41139;SDS011;26881;48.784;9.192;2023-02-08T16:12:17;17.33;;;11.37;;
41139;SDS011;26881;48.784;9.192;2023-02-08T16:17:43;18.20;;;11.80;;
41139;SDS011;26881;48.784;9.192;2023-02-08T16:23:28;24.17;;;12.63;;
41139;SDS011;26881;48.784;9.192;2023-02-08T16:34:39;20.53;;;13.80;;
41139;SDS011;26881;48.784;9.192;2023-02-08T16:45:27;19.60;;;12.37;;
41139;SDS011;26881;48.784;9.192;2023-02-08T16:50:48;21.10;;;13.00;;
41139;SDS011;26881;48.784;9.192;2023-02-08T16:56:10;20.50;;;13.33;;
41139;SDS011;26881;48.784;9.192;2023-02-08T17:01:32;25.70;;;14.53;;
41139;SDS011;26881;48.784;9.192;2023-02-08T17:06:54;28.50;;;17.07;;
41139;SDS011;26881;48.784;9.192;2023-02-08T17:12:16;22.27;;;14.50;;
41139;SDS011;26881;48.784;9.192;2023-02-08T17:17:43;22.83;;;14.87;;
41139;SDS011;26881;48.784;9.192;2023-02-08T17:23:05;23.83;;;15.40;;
41139;SDS011;26881;48.784;9.192;2023-02-08T17:28:27;22.07;;;14.13;;
41139;SDS011;26881;48.784;9.192;2023-02-08T17:33:49;28.93;;;16.20;;
41139;SDS011;26881;48.784;9.192;2023-02-08T17:39:12;28.70;;;16.70;;
41139;SDS011;26881;48.784;9.192;2023-02-08T17:44:34;26.50;;;15.97;;
41139;SDS011;26881;48.784;9.192;2023-02-08T17:49:56;23.30;;;15.53;;
41139;SDS011;26881;48.784;9.192;2023-02-08T17:55:18;26.27;;;16.27;;
41139;SDS011;26881;48.784;9.192;2023-02-08T18:00:40;25.17;;;16.20;;
41139;SDS011;26881;48.784;9.192;2023-02-08T18:06:01;24.90;;;15.90;;
41139;SDS011;26881;48.784;9.192;2023-02-08T18:11:26;28.80;;;16.17;;
41139;SDS011;26881;48.784;9.192;2023-02-08T18:16:48;28.80;;;16.63;;
41139;SDS011;26881;48.784;9.192;2023-02-08T18:22:09;22.97;;;15.97;;
41139;SDS011;26881;48.784;9.192;2023-02-08T18:27:31;27.53;;;16.77;;
41139;SDS011;26881;48.784;9.192;2023-02-08T18:32:53;27.27;;;17.10;;
41139;SDS011;26881;48.784;9.192;2023-02-08T18:38:15;28.00;;;17.03;;
41139;SDS011;26881;48.784;9.192;2023-02-08T18:43:37;29.63;;;17.47;;
41139;SDS011;26881;48.784;9.192;2023-02-08T18:48:59;29.90;;;17.13;;
41139;SDS011;26881;48.784;9.192;2023-02-08T18:54:21;28.77;;;17.20;;
41139;SDS011;26881;48.784;9.192;2023-02-08T18:59:43;24.40;;;16.10;;
41139;SDS011;26881;48.784;9.192;2023-02-08T19:05:05;34.27;;;19.93;;
41139;SDS011;26881;48.784;9.192;2023-02-08T19:10:27;27.37;;;17.10;;
41139;SDS011;26881;48.784;9.192;2023-02-08T19:15:49;28.50;;;18.33;;
41139;SDS011;26881;48.784;9.192;2023-02-08T19:21:12;27.40;;;17.93;;
41139;SDS011;26881;48.784;9.192;2023-02-08T19:26:36;25.23;;;16.37;;
41139;SDS011;26881;48.784;9.192;2023-02-08T19:32:00;27.60;;;17.00;;
41139;SDS011;26881;48.784;9.192;2023-02-08T19:37:22;29.90;;;16.90;;
41139;SDS011;26881;48.784;9.192;2023-02-08T19:42:44;29.17;;;17.53;;
41139;SDS011;26881;48.784;9.192;2023-02-08T19:48:06;27.67;;;16.67;;
41139;SDS011;26881;48.784;9.192;2023-02-08T19:53:29;26.17;;;17.03;;
41139;SDS011;26881;48.784;9.192;2023-02-08T19:58:51;24.47;;;16.80;;
41139;SDS011;26881;48.784;9.192;2023-02-08T20:04:12;26.07;;;16.90;;
41139;SDS011;26881;48.784;9.192;2023-02-08T20:09:35;25.33;;;16.63;;
41139;SDS011;26881;48.784;9.192;2023-02-08T20:14:57;28.37;;;18.37;;
41139;SDS011;26881;48.784;9.192;2023-02-08T20:20:19;30.00;;;18.40;;
41139;SDS011;26881;48.784;9.192;2023-02-08T20:25:41;26.30;;;16.57;;
41139;SDS011;26881;48.784;9.192;2023-02-08T20:31:11;25.53;;;17.20;;
41139;SDS011;26881;48.784;9.192;2023-02-08T20:36:36;28.93;;;18.53;;
41139;SDS011;26881;48.784;9.192;2023-02-08T20:42:01;30.53;;;19.80;;
41139;SDS011;26881;48.784;9.192;2023-02-08T20:47:23;27.83;;;18.77;;
41139;SDS011;26881;48.784;9.192;2023-02-08T20:52:45;31.43;;;19.10;;
41139;SDS011;26881;48.784;9.192;2023-02-08T20:58:07;31.50;;;17.07;;
41139;SDS011;26881;48.784;9.192;2023-02-08T21:03:29;28.43;;;17.70;;
41139;SDS011;26881;48.784;9.192;2023-02-08T21:08:50;30.73;;;18.47;;
41139;SDS011;26881;48.784;9.192;2023-02-08T21:14:13;29.77;;;17.03;;
41139;SDS011;26881;48.784;9.192;2023-02-08T21:19:41;26.40;;;17.27;;
41139;SDS011;26881;48.784;9.192;2023-02-08T21:25:03;28.67;;;16.57;;
41139;SDS011;26881;48.784;9.192;2023-02-08T21:30:24;30.23;;;17.90;;
41139;SDS011;26881;48.784;9.192;2023-02-08T21:35:46;30.07;;;17.57;;
41139;SDS011;26881;48.784;9.192;2023-02-08T21:41:15;27.73;;;17.53;;
41139;SDS011;26881;48.784;9.192;2023-02-08T21:46:42;32.37;;;17.70;;
41139;SDS011;26881;48.784;9.192;2023-02-08T21:52:03;30.27;;;19.87;;
41139;SDS011;26881;48.784;9.192;2023-02-08T21:57:44;27.53;;;17.67;;
41139;SDS011;26881;48.784;9.192;2023-02-08T22:03:06;24.53;;;16.23;;
41139;SDS011;26881;48.784;9.192;2023-02-08T22:08:27;22.50;;;15.90;;
41139;SDS011;26881;48.784;9.192;2023-02-08T22:13:49;26.20;;;16.60;;
41139;SDS011;26881;48.784;9.192;2023-02-08T22:19:11;31.10;;;16.37;;
41139;SDS011;26881;48.784;9.192;2023-02-08T22:24:33;25.60;;;16.30;;
41139;SDS011;26881;48.784;9.192;2023-02-08T22:29:56;24.27;;;15.93;;
41139;SDS011;26881;48.784;9.192;2023-02-08T22:35:17;30.80;;;16.63;;
41139;SDS011;26881;48.784;9.192;2023-02-08T22:40:40;28.07;;;16.37;;
41139;SDS011;26881;48.784;9.192;2023-02-08T22:46:02;28.07;;;16.50;;
41139;SDS011;26881;48.784;9.192;2023-02-08T22:51:25;27.13;;;16.63;;
41139;SDS011;26881;48.784;9.192;2023-02-08T22:56:46;29.93;;;17.03;;
41139;SDS011;26881;48.784;9.192;2023-02-08T23:02:08;31.07;;;16.73;;
41139;SDS011;26881;48.784;9.192;2023-02-08T23:07:30;26.80;;;17.00;;
41139;SDS011;26881;48.784;9.192;2023-02-08T23:12:52;30.73;;;16.57;;
41139;SDS011;26881;48.784;9.192;2023-02-08T23:18:13;30.03;;;16.70;;
41139;SDS011;26881;48.784;9.192;2023-02-08T23:23:35;27.20;;;15.73;;
41139;SDS011;26881;48.784;9.192;2023-02-08T23:28:57;26.10;;;15.73;;
41139;SDS011;26881;48.784;9.192;2023-02-08T23:34:19;26.43;;;16.47;;
41139;SDS011;26881;48.784;9.192;2023-02-08T23:39:40;22.97;;;14.57;;
41139;SDS011;26881;48.784;9.192;2023-02-08T23:45:02;25.67;;;14.97;;
41139;SDS011;26881;48.784;9.192;2023-02-08T23:50:25;23.37;;;14.73;;
41139;SDS011;26881;48.784;9.192;2023-02-08T23:55:46;27.30;;;16.37;;
